To NAV CANADA Home Page Login to a new session Search on AWWS site Feedback and Comments Disclaimer Vers la page française équivalente Tips FAQ What's new on the site To the Forecasts and Observations / NOTAM section To "File a Flight Plan" website Publications and other links Update of the User's profile FIC Telephone Numbers My Weather Data Folder Route Weather Data Regional Weather Data Local Weather Data To the Forecasts and Observations / NOTAM section
Request Generated 05/24/2015 at 10:51:17 UTC . Weather information available at that time is displayed.

METAR/TAF

BAKER LAKE/NU    

METAR CYBK 241000Z 33030G41KT 20SM BKN007 M05/M07 A2982 RMK SC6
SLP098=
METAR CYBK 240900Z 33029G37KT 20SM BKN006 BKN040 M03/M05 A2980 RMK
SC5SC2 SLP094=
METAR CYBK 240800Z 33034G43KT 20SM BKN007 M02/M04 A2976 RMK SC6
PRESRR SLP080=

TAF CYBK 240538Z 2406/2418 32045G55KT P6SM SCT007 SCT015 TEMPO
2406/2415 3SM -SN BKN007 OVC015
BECMG 2410/2412 33025G35KT
FM241500 34022G32KT P6SM SCT020
RMK NXT FCST BY 241200Z=
Your time UTC time
Weather data provided by Environment Canada and NAV CANADA